Cleveland, Ohio
Current Conditions -  °F | °C
As of 5:53 PM on Thursday 23 Oct 2014 (Local Time) from KBKL Reporting Station
Clear Clear  
Wind Chill: 52°   Ceiling: Unl
Heat Index: 52°   Visibility: 10mi
Dew Point: 45°   Wind: 7mph
Humidity: 77%   Direction: 270°W
Pressure: 30.13"   Gusts: NA
Location:  41.5°N, 81.69°W
Report Text: KBKL 232153Z 27006KT 10SM CLR 11/07 A3013 RMK AO2 SLP205 T01110072
Loading
Personal Weather Stations






























Interactive Weather Map New forecast layout! Learn more

10-Day Weather Forecast

Advertisements
Track Severe Weather on mobile